createdAt,value
2023-03-23T15:58:46.068Z,14.93
2023-03-23T16:01:15.823Z,15.01
2023-03-23T16:03:47.842Z,15.31
2023-03-23T16:06:23.504Z,15.37
2023-03-23T16:08:54.153Z,15.32
2023-03-23T16:11:23.754Z,15.24
2023-03-23T16:13:51.750Z,15.18
2023-03-23T16:16:22.286Z,15.15
2023-03-23T16:18:50.394Z,15.10
2023-03-23T16:21:19.413Z,15.06
2023-03-23T16:23:47.213Z,15.04
2023-03-23T16:26:15.986Z,15.02
2023-03-23T16:28:44.372Z,15.01
2023-03-23T16:31:12.119Z,15.00
2023-03-23T16:33:39.894Z,14.99
2023-03-23T16:36:08.401Z,14.97
2023-03-23T16:38:48.985Z,14.97
2023-03-23T16:41:18.245Z,14.96
2023-03-23T16:43:45.894Z,14.96
2023-03-23T16:46:14.353Z,14.96
2023-03-23T16:48:42.218Z,14.97
2023-03-23T16:51:10.045Z,14.99
2023-03-23T16:53:39.016Z,15.00
2023-03-23T16:56:07.276Z,14.99
2023-03-23T16:58:34.971Z,15.00
2023-03-23T17:01:03.121Z,15.00
2023-03-23T17:03:31.113Z,15.02
2023-03-23T17:06:01.288Z,15.02
2023-03-23T17:08:29.371Z,15.02
2023-03-23T17:10:58.405Z,15.05
2023-03-23T17:13:27.913Z,15.05
2023-03-23T17:15:57.293Z,15.06
2023-03-23T17:18:25.774Z,15.06
2023-03-23T17:20:54.147Z,15.06
2023-03-23T17:23:22.008Z,15.06
2023-03-23T17:25:50.382Z,15.05
2023-03-23T17:28:20.848Z,15.05
2023-03-23T17:30:48.987Z,15.04
2023-03-23T17:33:16.731Z,15.04
2023-03-23T17:35:47.688Z,15.05
2023-03-23T17:38:15.696Z,15.06
2023-03-23T17:40:43.308Z,15.06
2023-03-23T17:43:11.027Z,15.05
2023-03-23T17:45:39.986Z,15.04
2023-03-23T17:48:08.410Z,15.05
2023-03-23T17:50:36.698Z,15.04
2023-03-23T17:53:04.545Z,15.04
2023-03-23T17:55:32.359Z,15.04
2023-03-23T17:58:00.232Z,15.04
2023-03-23T18:00:27.819Z,15.03
2023-03-23T18:02:57.453Z,15.03
2023-03-23T18:05:27.854Z,15.02
2023-03-23T18:07:55.623Z,15.02
2023-03-23T18:10:23.288Z,15.03
2023-03-23T18:12:51.370Z,15.02
2023-03-23T18:15:19.213Z,15.02
2023-03-23T18:17:48.358Z,15.01
2023-03-23T18:20:18.188Z,15.01
2023-03-23T18:22:45.848Z,15.00
2023-03-23T18:25:13.850Z,15.06
2023-03-23T18:27:41.744Z,15.07
2023-03-23T18:30:11.154Z,15.08
2023-03-23T18:32:39.956Z,15.08
2023-03-23T18:35:09.733Z,15.08
2023-03-23T18:37:40.193Z,15.09
2023-03-23T18:40:11.650Z,15.08
2023-03-23T18:42:40.853Z,15.09
2023-03-23T18:45:09.442Z,15.08
2023-03-23T18:47:38.530Z,15.09
2023-03-23T18:50:07.866Z,15.08
2023-03-23T18:52:35.997Z,15.08
2023-03-23T18:55:05.957Z,15.08
2023-03-23T18:57:33.652Z,15.09
2023-03-23T19:00:01.307Z,15.10
2023-03-23T19:02:29.034Z,15.10
2023-03-23T19:04:57.008Z,15.09
2023-03-23T19:07:24.724Z,15.09
2023-03-23T19:09:52.286Z,15.08
2023-03-23T19:12:22.256Z,15.08
2023-03-23T19:14:51.154Z,15.09
2023-03-23T19:17:19.065Z,15.07
2023-03-23T19:19:47.131Z,15.08
2023-03-23T19:22:14.757Z,15.08
2023-03-23T19:24:42.347Z,15.07
2023-03-23T19:27:10.024Z,15.08
2023-03-23T19:29:38.993Z,15.09
2023-03-23T19:32:06.813Z,15.07
2023-03-23T19:34:34.477Z,15.07
2023-03-23T19:37:05.973Z,15.07
2023-03-23T19:39:37.891Z,15.08
2023-03-23T19:42:05.738Z,15.07
2023-03-23T19:47:03.428Z,15.07
2023-03-23T19:49:31.167Z,15.07
2023-03-23T19:52:07.200Z,15.08
2023-03-23T19:54:37.468Z,15.07
2023-03-23T19:57:05.377Z,15.08
2023-03-23T19:59:33.062Z,15.06
2023-03-23T20:02:01.372Z,15.07
2023-03-23T20:04:30.729Z,15.08
2023-03-23T20:06:59.039Z,15.07
2023-03-23T20:09:26.633Z,15.08
2023-03-23T20:11:54.277Z,15.06
2023-03-23T20:14:21.875Z,15.07
2023-03-23T20:16:49.890Z,15.07
2023-03-23T20:19:17.473Z,15.07
2023-03-23T20:21:46.467Z,15.07
2023-03-23T20:24:14.086Z,15.07
2023-03-23T20:26:43.522Z,15.09
2023-03-23T20:29:11.515Z,15.07
2023-03-23T20:31:41.108Z,15.07
2023-03-23T20:34:10.882Z,15.07
2023-03-23T20:36:42.099Z,15.08
2023-03-23T20:39:13.052Z,15.08
2023-03-23T20:41:41.363Z,15.07
2023-03-23T20:44:13.586Z,15.07
2023-03-23T20:46:41.726Z,15.07
2023-03-23T20:49:10.064Z,15.08
2023-03-23T20:51:38.065Z,15.07
2023-03-23T20:54:06.072Z,15.08
2023-03-23T20:56:35.653Z,15.08
2023-03-23T20:59:03.623Z,15.06
2023-03-23T21:01:33.154Z,15.07
2023-03-23T21:04:02.968Z,15.07
2023-03-23T21:06:31.382Z,15.07
2023-03-23T21:08:59.417Z,15.07
2023-03-23T21:11:28.645Z,15.06
2023-03-23T21:13:57.650Z,15.07
2023-03-23T21:16:25.675Z,15.06
2023-03-23T21:18:53.477Z,15.06
2023-03-23T21:21:21.613Z,15.06
2023-03-23T21:23:52.540Z,15.06
2023-03-23T21:26:22.853Z,15.05
2023-03-23T21:28:53.879Z,15.05
2023-03-23T21:31:26.353Z,15.06
2023-03-23T21:33:53.964Z,15.05
2023-03-23T21:36:21.558Z,15.05
2023-03-23T21:38:50.031Z,15.05
2023-03-23T21:41:17.823Z,15.05
2023-03-23T21:43:45.723Z,15.05
2023-03-23T21:46:18.204Z,15.04
2023-03-23T21:48:50.855Z,15.05
2023-03-23T21:51:21.123Z,15.05
2023-03-23T21:53:49.063Z,15.05
2023-03-23T21:56:17.063Z,15.06
2023-03-23T21:58:44.688Z,15.06
2023-03-23T22:01:13.241Z,15.07
2023-03-23T22:03:42.210Z,15.06
2023-03-23T22:06:14.967Z,15.05
2023-03-23T22:08:44.190Z,15.06
2023-03-23T22:11:15.621Z,15.06
2023-03-23T22:13:43.971Z,15.05
2023-03-23T22:16:14.380Z,15.05
2023-03-23T22:18:43.118Z,15.05
2023-03-23T22:21:13.541Z,15.05
2023-03-23T22:23:41.630Z,15.05
2023-03-23T22:26:10.874Z,15.05
2023-03-23T22:28:39.694Z,15.05
2023-03-23T22:31:10.415Z,15.04
2023-03-23T22:33:38.575Z,15.04
2023-03-23T22:36:07.480Z,15.04
2023-03-23T22:38:38.294Z,15.04
2023-03-23T22:41:07.635Z,15.03
2023-03-23T22:43:35.841Z,15.04
2023-03-23T22:46:03.734Z,15.04
2023-03-23T22:48:31.754Z,15.05
2023-03-23T22:50:59.834Z,15.05
2023-03-23T22:53:27.717Z,15.05
2023-03-23T22:55:58.548Z,15.05
2023-03-23T22:58:27.682Z,15.04
2023-03-23T23:00:59.259Z,15.05
2023-03-23T23:03:27.749Z,15.05
2023-03-23T23:05:57.599Z,15.05
2023-03-23T23:08:26.977Z,15.04
2023-03-23T23:10:58.691Z,15.04
2023-03-23T23:13:27.211Z,15.05
2023-03-23T23:15:58.128Z,15.04
2023-03-23T23:18:27.871Z,15.04
2023-03-23T23:20:57.419Z,15.05
2023-03-23T23:23:26.563Z,15.04
2023-03-23T23:25:56.309Z,15.05
2023-03-23T23:28:24.918Z,15.05
2023-03-23T23:30:52.808Z,15.04
2023-03-23T23:33:22.174Z,15.04
2023-03-23T23:35:50.169Z,15.04
2023-03-23T23:38:17.898Z,15.04
2023-03-23T23:40:47.608Z,15.05
2023-03-23T23:43:17.562Z,15.06
2023-03-23T23:45:45.383Z,15.04
2023-03-23T23:48:13.546Z,15.05
2023-03-23T23:50:41.647Z,15.04
2023-03-23T23:53:10.907Z,15.05
2023-03-23T23:55:40.586Z,15.04
2023-03-23T23:58:08.562Z,15.05
